Time;durP1;ratioP1;P1;durP2;ratioP2;P2;SDS_P1;SDS_P2;PMS_P1;PMS_P2;Temp;Humidity;BMP_temperature;BMP_pressure;BME280_temperature;BME280_humidity;BME280_pressure;Samples;Min_cycle;Max_cycle;Signal;HPM_P1;HPM_P2
2022/07/07 00:01:03;;;;;;;;;;;18.00;99.40;;;17.07;53.57;96131.63;10470334;28;1773;-73
2022/07/07 00:06:06;;;;;;;;;;;18.00;98.90;;;17.06;53.52;96130.03;10467037;28;1828;-73
2022/07/07 00:11:10;;;;;;;;;;;17.90;98.60;;;17.06;53.11;96130.03;10483858;28;1859;-73
2022/07/07 00:16:13;;;;;;;;;;;17.90;98.50;;;17.03;52.88;96127.91;10476410;28;1918;-72
2022/07/07 00:21:16;;;;;;;;;;;17.90;98.60;;;17.03;52.79;96125.19;10468798;28;2224;-71
2022/07/07 00:26:20;;;;;;;;;;;17.90;98.10;;;17.03;51.67;96117.03;10474291;28;1790;-72
2022/07/07 00:31:24;;;;;;;;;;;18.00;97.50;;;16.90;51.51;96126.03;10463126;28;1736;-73
2022/07/07 00:36:28;;;;;;;;;;;17.80;96.90;;;16.82;52.06;96121.31;10462613;28;1979;-73
2022/07/07 00:41:31;;;;;;;;;;;17.80;97.40;;;16.80;52.57;96123.56;10454609;28;2218;-73
2022/07/07 00:46:36;;;;;;;;;;;17.70;97.60;;;16.77;52.33;96132.28;10473117;28;1960;-71
2022/07/07 00:51:40;;;;;;;;;;;17.70;97.50;;;16.73;52.57;96127.47;10478864;28;2010;-72
2022/07/07 00:56:43;;;;;;;;;;;17.60;97.90;;;16.68;52.87;96118.59;10479753;28;2010;-72
2022/07/07 01:01:49;;;;;;;;;;;17.60;98.30;;;16.59;53.10;96118.50;10480857;28;2058;-71
2022/07/07 01:06:53;;;;;;;;;;;17.60;98.20;;;16.53;52.92;96117.00;10481514;28;1898;-72
2022/07/07 01:11:56;;;;;;;;;;;17.50;98.20;;;16.40;53.00;96118.59;10489226;28;1810;-72
2022/07/07 01:16:59;;;;;;;;;;;17.40;98.30;;;16.46;52.74;96119.31;10478479;28;1977;-72
2022/07/07 01:22:23;;;;;;;;;;;17.40;98.30;;;16.33;53.17;96112.78;10479170;28;1939;-73
2022/07/07 01:27:26;;;;;;;;;;;17.30;98.20;;;16.32;53.44;96110.38;10476275;28;1897;-72
2022/07/07 01:32:30;;;;;;;;;;;17.20;98.30;;;16.20;53.92;96119.81;10479168;28;1910;-72
2022/07/07 01:37:34;;;;;;;;;;;17.10;98.70;;;16.11;54.47;96116.22;10460511;28;1915;-71
2022/07/07 01:42:38;;;;;;;;;;;17.00;99.20;;;16.05;54.59;96103.84;10472610;28;2065;-73
2022/07/07 01:47:41;;;;;;;;;;;17.00;99.30;;;15.97;54.79;96099.13;10479332;28;1976;-72
2022/07/07 01:52:44;;;;;;;;;;;17.00;99.70;;;15.75;55.93;96107.13;10475978;28;2326;-72
2022/07/07 01:57:48;;;;;;;;;;;16.80;99.90;;;15.64;56.85;96106.47;10470267;28;1938;-72
2022/07/07 02:02:51;;;;;;;;;;;16.70;99.90;;;15.56;57.63;96105.22;10467149;28;1963;-72
2022/07/07 02:07:55;;;;;;;;;;;16.60;99.90;;;15.51;57.73;96113.44;10473842;28;1790;-72
2022/07/07 02:12:58;;;;;;;;;;;16.50;99.90;;;15.46;58.10;96112.72;10480051;28;2271;-72
2022/07/07 02:18:02;;;;;;;;;;;16.40;99.90;;;15.45;58.82;96114.63;10475064;28;2015;-72
2022/07/07 02:23:05;;;;;;;;;;;16.30;99.90;;;15.40;59.10;96117.44;10480942;28;2014;-72
2022/07/07 02:28:08;;;;;;;;;;;16.30;99.90;;;15.24;59.14;96107.94;10471717;28;2115;-72
2022/07/07 02:33:11;;;;;;;;;;;16.10;99.90;;;15.19;59.92;96110.72;10470280;28;2236;-72
2022/07/07 02:38:14;;;;;;;;;;;16.10;99.90;;;15.19;60.18;96102.59;10467534;28;1917;-71
2022/07/07 02:43:17;;;;;;;;;;;16.10;99.90;;;15.23;59.70;96106.31;10470900;28;1954;-72
2022/07/07 02:48:21;;;;;;;;;;;16.00;99.90;;;15.19;59.94;96091.75;10476800;28;1852;-72
2022/07/07 02:53:24;;;;;;;;;;;16.00;99.90;;;15.23;59.75;96098.19;10481740;28;1888;-72
2022/07/07 02:58:28;;;;;;;;;;;16.00;99.90;;;15.26;59.87;96101.09;10471961;28;1914;-72
2022/07/07 03:03:31;;;;;;;;;;;16.10;99.90;;;15.35;59.90;96103.97;10478281;28;1794;-72
2022/07/07 03:08:34;;;;;;;;;;;16.10;99.90;;;15.30;59.89;96093.22;10470151;28;1720;-72
2022/07/07 03:13:37;;;;;;;;;;;16.10;99.90;;;15.23;60.35;96095.50;10472834;28;1743;-73
2022/07/07 03:18:40;;;;;;;;;;;16.00;99.90;;;15.28;60.25;96098.94;10470309;28;1894;-72
2022/07/07 03:23:44;;;;;;;;;;;16.10;99.90;;;15.27;60.74;96094.63;10475210;28;1834;-72
2022/07/07 03:28:46;;;;;;;;;;;16.00;99.90;;;15.37;60.50;96080.09;10468390;28;1810;-72
2022/07/07 03:33:50;;;;;;;;;;;16.20;99.90;;;15.28;60.52;96077.25;10466335;28;1857;-72
2022/07/07 03:38:53;;;;;;;;;;;16.10;99.90;;;15.29;60.79;96083.47;10464967;28;1981;-73
2022/07/07 03:43:56;;;;;;;;;;;16.10;99.90;;;15.31;61.33;96073.94;10471491;28;1841;-72
2022/07/07 03:48:59;;;;;;;;;;;16.10;99.90;;;15.41;60.98;96073.78;10471677;28;2274;-72
2022/07/07 03:54:03;;;;;;;;;;;16.10;99.90;;;15.49;60.58;96071.50;10471408;28;1948;-72
2022/07/07 03:59:06;;;;;;;;;;;16.20;99.90;;;15.49;60.43;96077.72;10466245;28;2216;-71
2022/07/07 04:04:09;;;;;;;;;;;16.30;99.90;;;15.55;59.09;96081.16;10470595;28;2008;-71
2022/07/07 04:09:12;;;;;;;;;;;16.40;99.90;;;15.58;59.53;96081.34;10500117;28;1805;-72
2022/07/07 04:14:16;;;;;;;;;;;16.30;99.90;;;15.70;59.47;96082.81;10470143;28;1821;-72
2022/07/07 04:19:19;;;;;;;;;;;16.40;99.90;;;15.65;59.76;96081.81;10476179;28;2145;-73
2022/07/07 04:24:22;;;;;;;;;;;16.40;99.90;;;15.81;58.60;96079.63;10465523;28;1854;-73
2022/07/07 04:29:25;;;;;;;;;;;16.50;99.90;;;15.75;59.37;96078.09;10458184;28;1871;-72
2022/07/07 04:34:29;;;;;;;;;;;16.50;99.90;;;15.86;58.87;96076.03;10468994;28;1951;-73
2022/07/07 04:39:32;;;;;;;;;;;16.60;99.90;;;15.87;57.76;96074.91;10474970;28;1987;-73
2022/07/07 04:44:35;;;;;;;;;;;16.60;99.90;;;15.95;58.16;96066.88;10472537;28;1778;-74
2022/07/07 04:49:39;;;;;;;;;;;16.60;99.90;;;16.05;57.28;96068.59;10470724;28;1761;-73
2022/07/07 04:54:43;;;;;;;;;;;16.80;99.90;;;16.16;57.20;96074.63;10465609;28;1910;-73
2022/07/07 04:59:45;;;;;;;;;;;16.90;99.90;;;16.37;56.89;96069.59;10470284;28;1910;-74
2022/07/07 05:04:49;;;;;;;;;;;16.60;99.90;;;16.40;56.80;96077.91;10462003;28;1871;-73
2022/07/07 05:09:51;;;;;;;;;;;17.10;99.90;;;16.28;54.83;96065.97;10471952;28;1852;-73
2022/07/07 05:14:56;;;;;;;;;;;17.10;99.90;;;16.39;54.90;96078.22;10466803;28;1846;-73
2022/07/07 05:20:00;;;;;;;;;;;17.00;99.90;;;16.44;55.33;96080.84;10470472;28;2089;-73
2022/07/07 05:25:04;;;;;;;;;;;17.10;99.90;;;16.22;55.57;96084.25;10470210;28;2114;-72
2022/07/07 05:30:08;;;;;;;;;;;17.20;99.90;;;16.18;55.67;96085.97;10466236;28;1757;-73
2022/07/07 05:35:11;;;;;;;;;;;17.00;99.90;;;16.23;55.19;96085.09;10472951;28;1972;-73
2022/07/07 05:40:15;;;;;;;;;;;16.90;99.90;;;16.10;55.86;96089.41;10477332;28;1983;-73
2022/07/07 05:45:17;;;;;;;;;;;16.90;99.90;;;16.24;55.56;96094.81;10482284;28;1822;-73
2022/07/07 05:50:20;;;;;;;;;;;17.00;99.90;;;16.47;55.01;96089.16;10474565;28;1829;-73
2022/07/07 05:55:23;;;;;;;;;;;17.10;99.90;;;16.78;53.87;96093.16;10479853;28;1775;-73
2022/07/07 06:00:27;;;;;;;;;;;17.30;99.90;;;16.98;52.57;96084.56;10477552;28;1911;-73
2022/07/07 06:05:30;;;;;;;;;;;17.50;99.90;;;17.71;51.71;96072.50;10478172;28;1858;-73
2022/07/07 06:10:33;;;;;;;;;;;18.00;99.90;;;18.31;49.88;96077.38;10479221;28;1804;-73
2022/07/07 06:15:36;;;;;;;;;;;18.70;99.20;;;18.02;50.38;96074.41;10482651;28;1860;-73
2022/07/07 06:20:38;;;;;;;;;;;18.80;98.10;;;17.74;51.54;96074.56;10486079;28;1985;-73
2022/07/07 06:25:42;;;;;;;;;;;18.60;98.50;;;17.64;52.43;96077.53;10476358;28;1840;-73
2022/07/07 06:30:46;;;;;;;;;;;18.40;99.30;;;17.48;52.56;96077.13;10475754;28;2028;-72
2022/07/07 06:35:48;;;;;;;;;;;18.40;99.50;;;17.96;51.90;96092.78;10478155;28;1909;-74
2022/07/07 06:40:51;;;;;;;;;;;18.50;99.90;;;18.01;51.79;96089.13;10479804;28;1875;-74
2022/07/07 06:45:54;;;;;;;;;;;18.80;99.20;;;18.12;51.36;96090.44;10474398;28;1874;-75
2022/07/07 06:50:57;;;;;;;;;;;18.90;99.30;;;18.22;51.27;96084.72;10473756;28;1829;-75
2022/07/07 06:56:01;;;;;;;;;;;18.90;99.20;;;18.52;50.24;96082.25;10481228;28;1999;-72
2022/07/07 07:01:03;;;;;;;;;;;19.00;98.90;;;18.98;49.79;96086.38;10479556;28;1953;-75
2022/07/07 07:06:06;;;;;;;;;;;19.40;98.80;;;19.45;48.29;96077.19;10481313;28;1891;-75
2022/07/07 07:11:09;;;;;;;;;;;19.80;97.90;;;19.23;48.09;96084.78;10477369;28;1578;-77
2022/07/07 07:16:12;;;;;;;;;;;19.90;96.80;;;18.79;48.82;96079.28;10468864;28;1914;-75
2022/07/07 07:21:15;;;;;;;;;;;19.70;96.60;;;18.68;50.14;96083.44;10497951;28;1905;-76
2022/07/07 07:26:17;;;;;;;;;;;19.40;98.10;;;18.69;50.35;96086.97;10491516;28;1871;-75
2022/07/07 07:31:20;;;;;;;;;;;19.30;98.30;;;18.74;51.08;96089.53;10496241;28;1963;-76
2022/07/07 07:36:23;;;;;;;;;;;19.40;99.10;;;18.90;50.16;96086.03;10467044;28;1971;-75
2022/07/07 07:41:26;;;;;;;;;;;19.60;98.50;;;19.08;49.72;96083.31;10490213;28;2063;-75
2022/07/07 07:46:29;;;;;;;;;;;19.70;98.20;;;19.50;48.12;96086.34;10480175;28;1900;-75
2022/07/07 07:51:32;;;;;;;;;;;19.80;97.90;;;19.72;47.94;96072.53;10475841;28;1934;-76
2022/07/07 07:56:34;;;;;;;;;;;20.20;97.30;;;20.25;46.29;96076.69;10465303;28;1918;-76
2022/07/07 08:01:39;;;;;;;;;;;20.50;96.20;;;20.42;44.74;96073.91;10492870;28;1860;-76
2022/07/07 08:06:42;;;;;;;;;;;20.90;94.80;;;20.12;45.76;96078.53;10529496;28;1891;-78
2022/07/07 08:11:45;;;;;;;;;;;20.90;94.50;;;19.87;46.53;96082.94;10529264;28;1813;-77
2022/07/07 08:16:48;;;;;;;;;;;20.70;94.70;;;20.01;46.00;96081.94;10497484;28;1968;-76
2022/07/07 08:21:51;;;;;;;;;;;20.60;94.80;;;20.02;46.03;96072.63;10487874;28;1610;-76
2022/07/07 08:26:54;;;;;;;;;;;20.80;94.90;;;20.19;44.81;96067.09;10475176;28;1970;-76
2022/07/07 08:31:57;;;;;;;;;;;21.10;93.60;;;20.42;43.90;96071.16;10469054;28;1907;-77
2022/07/07 08:37:02;;;;;;;;;;;21.20;92.70;;;20.95;44.00;96082.59;10473711;28;2196;-75
2022/07/07 08:42:05;;;;;;;;;;;21.40;93.50;;;21.48;42.55;96062.72;10475815;28;1839;-77
2022/07/07 08:47:08;;;;;;;;;;;21.90;92.50;;;22.37;40.13;96068.50;10475682;28;1827;-76
2022/07/07 08:52:11;;;;;;;;;;;22.40;91.30;;;22.38;41.06;96064.63;10462896;28;1860;-75
2022/07/07 08:57:15;;;;;;;;;;;22.90;90.50;;;21.96;41.98;96069.47;10467674;28;1973;-73
2022/07/07 09:02:18;;;;;;;;;;;22.60;90.70;;;21.51;41.83;96078.47;10466569;28;1875;-75
2022/07/07 09:07:21;;;;;;;;;;;22.40;90.30;;;21.56;42.89;96078.25;10472047;28;1835;-76
2022/07/07 09:12:24;;;;;;;;;;;22.30;91.60;;;22.24;40.04;96083.34;10481619;28;1818;-75
2022/07/07 09:17:27;;;;;;;;;;;22.60;90.00;;;22.54;40.53;96081.19;10483555;28;1969;-75
2022/07/07 09:22:35;;;;;;;;;;;23.00;90.10;;;21.69;40.91;96078.28;10480872;28;1822;-76
2022/07/07 09:27:38;;;;;;;;;;;22.90;88.80;;;20.63;44.07;96092.28;10493516;28;1873;-77
2022/07/07 09:32:41;;;;;;;;;;;22.10;90.70;;;19.86;55.49;96096.91;10485867;28;1625;-75
2022/07/07 09:43:03;;;;;;;;;;;20.80;99.90;;;19.63;57.03;96109.94;10479565;28;1792;-76
2022/07/07 09:48:06;;;;;;;;;;;20.30;99.90;;;20.23;55.37;96100.78;10480286;28;1989;-76
2022/07/07 09:53:09;;;;;;;;;;;20.50;99.90;;;20.54;50.06;96105.16;10484057;28;1847;-76
2022/07/07 09:58:12;;;;;;;;;;;20.90;99.50;;;20.69;50.03;96107.34;10483520;28;1903;-75
2022/07/07 10:03:15;;;;;;;;;;;21.30;99.90;;;20.07;50.43;96099.72;10482298;28;1825;-75
2022/07/07 10:08:17;;;;;;;;;;;21.10;98.70;;;19.82;54.30;96118.56;10475771;28;1916;-75
2022/07/07 10:13:21;;;;;;;;;;;20.80;99.90;;;18.74;68.20;96112.13;10475938;28;1894;-72
2022/07/07 10:18:24;;;;;;;;;;;20.20;99.90;;;17.71;75.92;96124.16;10480328;28;1933;-74
2022/07/07 10:23:26;;;;;;;;;;;19.30;99.90;;;17.98;80.33;96119.66;10465623;28;1758;-74
2022/07/07 10:28:31;;;;;;;;;;;18.80;99.90;;;18.69;74.82;96120.44;10476245;28;1859;-74
2022/07/07 10:33:34;;;;;;;;;;;19.10;99.90;;;19.25;71.96;96128.84;10483755;28;1786;-74
2022/07/07 10:38:37;;;;;;;;;;;19.60;99.90;;;19.64;66.16;96119.72;10486812;28;1906;-74
2022/07/07 10:43:40;;;;;;;;;;;20.10;99.90;;;20.22;60.14;96104.63;10476643;28;1909;-73
2022/07/07 10:48:46;;;;;;;;;;;20.60;99.90;;;20.43;57.98;96116.44;10477036;28;2204;-74
2022/07/07 10:53:49;;;;;;;;;;;21.00;99.90;;;20.93;57.61;96091.13;10475543;28;1934;-74
2022/07/07 10:58:51;;;;;;;;;;;21.30;99.90;;;21.22;58.00;96084.78;10474685;28;1973;-75
2022/07/07 11:03:54;;;;;;;;;;;21.80;99.90;;;21.39;54.14;96099.50;10471280;28;2077;-75
2022/07/07 11:08:58;;;;;;;;;;;22.10;99.90;;;21.47;50.85;96088.47;10478648;28;1842;-75
2022/07/07 11:14:02;;;;;;;;;;;22.10;99.90;;;21.64;50.51;96097.66;10473203;28;2193;-76
2022/07/07 11:19:05;;;;;;;;;;;22.20;99.90;;;21.54;49.79;96094.19;10473598;28;2130;-75
2022/07/07 11:24:08;;;;;;;;;;;22.20;99.90;;;21.47;50.43;96093.94;10486696;28;1836;-74
2022/07/07 11:29:12;;;;;;;;;;;22.10;99.90;;;21.23;49.71;96083.66;10477111;28;1916;-74
2022/07/07 11:34:15;;;;;;;;;;;22.10;99.70;;;20.89;50.52;96090.19;10470019;28;1911;-75
2022/07/07 11:39:18;;;;;;;;;;;21.90;99.70;;;20.43;52.38;96083.69;10483720;28;2029;-74
2022/07/07 11:44:21;;;;;;;;;;;21.40;99.90;;;20.07;54.09;96086.09;10476612;28;1904;-75
2022/07/07 11:49:24;;;;;;;;;;;21.00;99.90;;;19.78;55.81;96095.78;10473457;28;1840;-75
2022/07/07 11:54:27;;;;;;;;;;;20.80;99.90;;;20.55;53.07;96090.38;10480624;28;1837;-74
2022/07/07 11:59:30;;;;;;;;;;;21.00;99.90;;;19.83;54.65;96092.88;10489450;28;1906;-73
2022/07/07 12:04:33;;;;;;;;;;;21.00;99.90;;;19.92;56.05;96090.94;10473708;28;2183;-74
2022/07/07 12:09:36;;;;;;;;;;;20.80;99.90;;;19.33;62.64;96101.59;10476125;28;1812;-74
2022/07/07 12:14:40;;;;;;;;;;;20.40;99.90;;;19.10;59.08;96092.78;10477690;28;2064;-74
2022/07/07 12:19:43;;;;;;;;;;;20.00;99.90;;;19.41;57.45;96095.34;10467512;28;1906;-74
2022/07/07 12:24:46;;;;;;;;;;;20.00;99.90;;;19.67;58.24;96094.53;10485431;28;1782;-73
2022/07/07 12:30:09;;;;;;;;;;;20.30;99.90;;;19.65;57.44;96092.13;10493545;28;1952;-74
2022/07/07 12:35:12;;;;;;;;;;;20.40;99.90;;;20.27;54.91;96085.34;10478003;28;1973;-75
2022/07/07 12:40:15;;;;;;;;;;;20.50;99.90;;;21.02;53.05;96082.88;10462701;28;2110;-75
2022/07/07 12:45:19;;;;;;;;;;;21.20;99.90;;;22.28;51.46;96086.22;10479450;28;1853;-74
2022/07/07 12:50:22;;;;;;;;;;;21.90;99.90;;;22.87;48.01;96083.00;10471227;28;2028;-74
2022/07/07 12:55:27;;;;;;;;;;;22.70;99.90;;;22.14;48.27;96078.31;10473153;28;1813;-74
2022/07/07 13:00:33;;;;;;;;;;;22.90;98.70;;;22.36;47.68;96068.84;10465523;28;1977;-74
2022/07/07 13:05:36;;;;;;;;;;;22.90;98.80;;;22.74;46.58;96078.66;10472403;28;1881;-75
2022/07/07 13:10:39;;;;;;;;;;;23.20;98.30;;;22.18;47.67;96081.97;10487611;28;1827;-74
2022/07/07 13:15:42;;;;;;;;;;;22.90;98.30;;;21.30;51.18;96083.16;10468865;28;1948;-74
2022/07/07 13:20:45;;;;;;;;;;;22.30;99.90;;;20.57;53.43;96080.75;10475356;28;1985;-74
2022/07/07 13:25:48;;;;;;;;;;;21.70;99.90;;;20.07;61.91;96086.09;10471857;28;1822;-75
2022/07/07 13:30:50;;;;;;;;;;;21.20;99.90;;;19.06;66.45;96085.56;10478867;28;1869;-74
2022/07/07 13:35:54;;;;;;;;;;;20.60;99.90;;;18.59;70.80;96093.50;10474687;28;1849;-73
2022/07/07 13:40:58;;;;;;;;;;;20.00;99.90;;;17.44;84.95;96116.09;10470003;28;1971;-75
2022/07/07 13:46:12;;;;;;;;;;;19.00;99.90;;;16.38;100.00;96141.72;10473956;28;1868;-74
2022/07/07 13:51:16;;;;;;;;;;;17.80;99.90;;;15.68;100.00;96157.09;10469604;28;2016;-74
2022/07/07 13:56:26;;;;;;;;;;;17.10;99.90;;;15.11;100.00;96169.03;10474169;28;1847;-75
2022/07/07 14:01:29;;;;;;;;;;;16.20;99.90;;;14.82;100.00;96161.03;10484558;28;1973;-76
2022/07/07 14:06:33;;;;;;;;;;;15.80;99.90;;;14.54;100.00;96158.16;10475157;28;1813;-76
2022/07/07 14:11:36;;;;;;;;;;;15.60;99.90;;;15.17;100.00;96143.50;10472262;28;1872;-74
2022/07/07 14:16:39;;;;;;;;;;;15.70;99.90;;;16.29;100.00;96138.94;10469830;28;1677;-75
2022/07/07 14:21:42;;;;;;;;;;;16.20;99.90;;;17.75;100.00;96119.72;10481508;28;1981;-76
2022/07/07 14:26:46;;;;;;;;;;;17.30;99.90;;;18.61;100.00;96116.53;10477673;28;1870;-76
2022/07/07 14:31:49;;;;;;;;;;;18.30;99.90;;;19.11;100.00;96104.47;10475035;28;1810;-75
2022/07/07 14:36:52;;;;;;;;;;;19.10;99.90;;;19.69;100.00;96101.25;10478100;28;1871;-77
2022/07/07 14:41:56;;;;;;;;;;;19.20;99.90;;;20.38;92.68;96086.59;10469613;28;2155;-76
2022/07/07 14:46:59;;;;;;;;;;;20.20;99.90;;;20.05;91.99;96078.22;10455990;28;1866;-76
2022/07/07 14:52:02;;;;;;;;;;;20.40;99.90;;;19.85;92.75;96068.00;10468873;28;2018;-77
2022/07/07 14:57:05;;;;;;;;;;;20.30;99.90;;;19.84;94.22;96086.31;10474139;28;1904;-75
2022/07/07 15:02:07;;;;;;;;;;;20.20;99.90;;;19.19;95.22;96090.06;10476634;28;1909;-77
2022/07/07 15:07:10;;;;;;;;;;;20.00;99.90;;;18.47;100.00;96090.56;10477744;28;1861;-75
2022/07/07 15:12:13;;;;;;;;;;;19.50;99.90;;;17.74;100.00;96096.31;10470123;28;1929;-74
2022/07/07 15:17:16;;;;;;;;;;;18.50;99.90;;;17.22;100.00;96095.16;10479143;28;2203;-74
2022/07/07 15:22:20;;;;;;;;;;;18.50;99.90;;;17.39;100.00;96089.84;10472383;28;2072;-76
2022/07/07 15:27:23;;;;;;;;;;;17.60;99.90;;;18.37;100.00;96097.88;10476665;28;1766;-73
2022/07/07 15:32:26;;;;;;;;;;;18.00;99.90;;;19.17;100.00;96089.59;10473985;28;1855;-74
2022/07/07 15:37:30;;;;;;;;;;;18.90;99.90;;;19.42;100.00;96088.78;10474124;28;1420;-74
2022/07/07 15:42:33;;;;;;;;;;;19.30;99.90;;;19.38;100.00;96087.78;10463437;28;1938;-75
2022/07/07 15:47:36;;;;;;;;;;;19.50;99.90;;;19.64;100.00;96074.16;10478747;28;1845;-74
2022/07/07 15:52:41;;;;;;;;;;;19.70;99.90;;;19.78;100.00;96075.88;10468746;28;1912;-74
2022/07/07 15:57:45;;;;;;;;;;;20.00;99.90;;;20.02;99.82;96076.13;10461407;28;1842;-74
2022/07/07 16:02:49;;;;;;;;;;;20.10;99.90;;;20.23;100.00;96063.38;10465958;28;1926;-74
2022/07/07 16:07:52;;;;;;;;;;;20.40;99.90;;;20.27;96.35;96068.19;10469593;28;1859;-72
2022/07/07 16:12:55;;;;;;;;;;;20.70;99.90;;;20.29;99.09;96063.19;10469440;28;1845;-75
2022/07/07 16:17:58;;;;;;;;;;;20.70;99.90;;;19.78;99.32;96062.25;10473860;28;1775;-75
2022/07/07 16:23:01;;;;;;;;;;;20.40;99.90;;;19.25;100.00;96064.25;10481701;28;1918;-75
2022/07/07 16:28:05;;;;;;;;;;;20.10;99.90;;;18.67;100.00;96073.66;10486739;28;1781;-72
2022/07/07 16:33:09;;;;;;;;;;;19.60;99.90;;;18.53;100.00;96067.53;10478106;28;1829;-72
2022/07/07 16:38:11;;;;;;;;;;;19.30;99.90;;;18.30;100.00;96072.25;10490883;28;1831;-74
2022/07/07 16:43:18;;;;;;;;;;;19.10;99.90;;;18.00;100.00;96079.34;10465340;28;1979;-73
2022/07/07 16:48:21;;;;;;;;;;;18.90;99.90;;;17.64;100.00;96096.56;10475324;28;1821;-74
2022/07/07 16:53:24;;;;;;;;;;;18.60;99.90;;;16.32;100.00;96134.81;10472347;28;1801;-74
2022/07/07 16:58:28;;;;;;;;;;;17.80;99.90;;;15.38;100.00;96152.13;10471270;28;1828;-75
2022/07/07 17:03:31;;;;;;;;;;;16.60;99.90;;;15.16;100.00;96149.22;10480753;28;1839;-73
2022/07/07 17:08:34;;;;;;;;;;;16.20;99.90;;;15.27;100.00;96156.06;10508941;28;1818;-70
2022/07/07 17:13:37;;;;;;;;;;;16.00;99.90;;;15.03;100.00;96159.69;10507195;28;1793;-71
2022/07/07 17:18:40;;;;;;;;;;;15.90;99.90;;;14.96;100.00;96175.50;10493843;28;1972;-71
2022/07/07 17:23:46;;;;;;;;;;;15.80;99.90;;;14.82;100.00;96177.28;10468843;28;1780;-72
2022/07/07 17:28:49;;;;;;;;;;;15.70;99.90;;;14.60;100.00;96173.22;10477095;28;1802;-73
2022/07/07 17:33:52;;;;;;;;;;;15.50;99.90;;;14.39;100.00;96179.94;10482833;28;1677;-72
2022/07/07 17:38:56;;;;;;;;;;;15.30;99.90;;;14.32;100.00;96184.91;10478283;28;2209;-73
2022/07/07 17:43:58;;;;;;;;;;;15.20;99.90;;;14.31;100.00;96183.25;10480217;28;1835;-71
2022/07/07 17:49:02;;;;;;;;;;;15.10;99.90;;;14.35;100.00;96189.72;10474193;28;1872;-72
2022/07/07 17:54:05;;;;;;;;;;;15.10;99.90;;;14.39;100.00;96189.97;10472976;28;1888;-73
2022/07/07 17:59:08;;;;;;;;;;;15.20;99.90;;;14.38;100.00;96183.75;10470553;28;1910;-71
2022/07/07 18:04:12;;;;;;;;;;;15.20;99.90;;;14.35;100.00;96195.13;10471004;28;1903;-70
2022/07/07 18:09:15;;;;;;;;;;;15.20;99.90;;;14.46;100.00;96196.66;10475800;28;1798;-71
2022/07/07 18:14:18;;;;;;;;;;;15.30;99.90;;;14.41;100.00;96201.28;10481005;28;1859;-70
2022/07/07 18:19:21;;;;;;;;;;;14.60;99.90;;;14.44;100.00;96206.94;10476934;28;1918;-72
2022/07/07 18:24:24;;;;;;;;;;;15.20;99.90;;;14.37;100.00;96205.66;10474701;28;1593;-69
2022/07/07 18:29:27;;;;;;;;;;;15.20;99.90;;;14.23;100.00;96213.63;10479772;28;1424;-71
2022/07/07 18:34:30;;;;;;;;;;;15.10;99.90;;;14.18;100.00;96221.78;10467375;28;2385;-73
2022/07/07 18:39:33;;;;;;;;;;;15.10;99.90;;;14.15;100.00;96238.59;10472837;28;1977;-71
2022/07/07 18:44:37;;;;;;;;;;;14.90;99.90;;;14.19;100.00;96226.94;10472715;28;1482;-73
2022/07/07 18:49:40;;;;;;;;;;;14.90;99.90;;;14.21;100.00;96232.06;10472714;28;1887;-73
2022/07/07 18:54:43;;;;;;;;;;;15.00;99.90;;;14.20;100.00;96235.84;10474858;28;1464;-73
2022/07/07 18:59:46;;;;;;;;;;;15.00;99.90;;;14.21;100.00;96245.56;10474351;28;1969;-72
2022/07/07 19:04:49;;;;;;;;;;;15.00;99.90;;;14.14;100.00;96243.19;10468094;28;1404;-73
2022/07/07 19:09:53;;;;;;;;;;;15.00;99.90;;;14.09;100.00;96262.16;10478471;28;1587;-72
2022/07/07 19:14:55;;;;;;;;;;;14.90;99.90;;;14.10;100.00;96262.97;10469206;28;1409;-72
2022/07/07 19:19:58;;;;;;;;;;;15.00;99.90;;;14.05;100.00;96269.22;10480375;28;1923;-71
2022/07/07 19:25:01;;;;;;;;;;;14.90;99.90;;;14.09;100.00;96283.78;10474270;28;1538;-72
2022/07/07 19:30:11;;;;;;;;;;;14.90;99.90;;;14.06;100.00;96284.38;10473002;28;1573;-73
2022/07/07 19:35:14;;;;;;;;;;;14.90;99.90;;;14.02;100.00;96284.13;10477647;28;1540;-73
2022/07/07 19:40:17;;;;;;;;;;;14.90;99.90;;;14.09;100.00;96297.31;10475355;28;1879;-72
2022/07/07 19:45:25;;;;;;;;;;;14.90;99.90;;;14.06;100.00;96300.59;10471696;28;1749;-72
2022/07/07 19:50:30;;;;;;;;;;;14.90;99.90;;;14.02;100.00;96318.44;10473104;28;1639;-73
2022/07/07 19:55:33;;;;;;;;;;;14.90;99.90;;;14.06;100.00;96317.63;10472388;28;1305;-71
2022/07/07 20:00:36;;;;;;;;;;;14.90;99.90;;;14.15;100.00;96328.63;10466576;28;1985;-71
2022/07/07 20:05:40;;;;;;;;;;;14.90;99.90;;;14.13;100.00;96327.31;10480259;28;1898;-72
2022/07/07 20:10:42;;;;;;;;;;;15.00;99.90;;;14.17;100.00;96331.03;10469841;28;1889;-73
2022/07/07 20:15:45;;;;;;;;;;;15.00;99.90;;;14.18;100.00;96336.16;10470500;28;2219;-71
2022/07/07 20:21:13;;;;;;;;;;;15.00;99.90;;;14.20;100.00;96350.22;10466025;28;1918;-72
2022/07/07 20:26:16;;;;;;;;;;;15.00;99.90;;;14.25;100.00;96357.47;10468592;28;1896;-71
2022/07/07 20:31:19;;;;;;;;;;;15.00;99.90;;;14.23;100.00;96359.66;10474751;28;1931;-72
2022/07/07 20:36:23;;;;;;;;;;;15.10;99.90;;;14.29;100.00;96370.16;10473958;28;1901;-72
2022/07/07 20:41:26;;;;;;;;;;;15.10;99.90;;;14.31;100.00;96372.56;10476027;28;1910;-73
2022/07/07 20:46:30;;;;;;;;;;;15.10;99.90;;;14.36;100.00;96380.63;10496258;28;1855;-72
2022/07/07 20:51:33;;;;;;;;;;;15.20;99.90;;;14.33;100.00;96394.75;10498787;28;1823;-72
2022/07/07 20:56:36;;;;;;;;;;;15.20;99.90;;;14.35;100.00;96392.56;10471301;28;1892;-71
2022/07/07 21:01:40;;;;;;;;;;;15.20;99.90;;;14.39;100.00;96395.50;10465632;28;1991;-72
2022/07/07 21:06:43;;;;;;;;;;;15.20;99.90;;;14.46;100.00;96413.06;10481136;28;1835;-71
2022/07/07 21:11:46;;;;;;;;;;;15.20;99.90;;;14.51;100.00;96415.72;10477956;28;1868;-71
2022/07/07 21:16:49;;;;;;;;;;;15.30;99.90;;;14.54;100.00;96407.03;10474847;28;1843;-71
2022/07/07 21:21:52;;;;;;;;;;;15.40;99.90;;;14.58;100.00;96418.91;10481207;28;1991;-72
2022/07/07 21:26:56;;;;;;;;;;;15.40;99.90;;;14.52;100.00;96428.16;10481040;28;1858;-71
2022/07/07 21:31:59;;;;;;;;;;;15.40;99.90;;;14.48;100.00;96431.69;10488279;28;1855;-71
2022/07/07 21:37:02;;;;;;;;;;;15.30;99.90;;;14.48;100.00;96431.69;10475282;28;1816;-72
2022/07/07 21:42:05;;;;;;;;;;;15.20;99.90;;;14.51;100.00;96445.50;10476839;28;1922;-71
2022/07/07 21:47:08;;;;;;;;;;;15.30;99.90;;;14.42;100.00;96444.41;10471095;28;1845;-71
2022/07/07 21:52:12;;;;;;;;;;;15.30;99.90;;;14.40;100.00;96441.19;10480373;28;1855;-73
2022/07/07 21:57:15;;;;;;;;;;;15.20;99.90;;;14.40;100.00;96451.22;10471656;28;1890;-71
2022/07/07 22:02:18;;;;;;;;;;;15.20;99.90;;;14.38;100.00;96447.97;10477522;28;1918;-73
2022/07/07 22:07:21;;;;;;;;;;;15.20;99.90;;;14.29;100.00;96450.47;10477552;28;1877;-70
2022/07/07 22:12:23;;;;;;;;;;;15.20;99.90;;;14.29;100.00;96448.56;10478886;28;1877;-71
2022/07/07 22:17:27;;;;;;;;;;;15.10;99.90;;;14.23;100.00;96451.59;10469726;28;1875;-71
2022/07/07 22:22:30;;;;;;;;;;;15.10;99.90;;;14.19;100.00;96467.56;10477393;28;1959;-72
2022/07/07 22:27:32;;;;;;;;;;;15.00;99.90;;;14.27;100.00;96468.88;10475661;28;1843;-72
2022/07/07 22:32:36;;;;;;;;;;;15.00;99.90;;;14.23;100.00;96468.63;10477818;28;1836;-71
2022/07/07 22:37:39;;;;;;;;;;;15.10;99.90;;;14.21;100.00;96478.09;10486091;28;1846;-72
2022/07/07 22:42:43;;;;;;;;;;;15.00;99.90;;;14.14;100.00;96483.00;10474668;28;1910;-72
2022/07/07 22:47:46;;;;;;;;;;;15.00;99.90;;;14.15;100.00;96479.22;10473620;28;1989;-72
2022/07/07 22:52:48;;;;;;;;;;;15.00;99.90;;;14.07;100.00;96476.03;10478348;28;1805;-72
2022/07/07 22:57:51;;;;;;;;;;;15.00;99.90;;;14.09;100.00;96489.25;10472928;28;2002;-72
2022/07/07 23:02:54;;;;;;;;;;;14.90;99.90;;;14.02;100.00;96483.34;10476545;28;1975;-72
2022/07/07 23:07:58;;;;;;;;;;;14.90;99.90;;;14.00;100.00;96490.94;10474480;28;1859;-73
2022/07/07 23:13:01;;;;;;;;;;;14.80;99.90;;;13.98;100.00;96483.06;10460560;28;1857;-72